Time;durP1;ratioP1;P1;durP2;ratioP2;P2;SDS_P1;SDS_P2;PMS_P1;PMS_P2;Temp;Humidity;BMP_temperature;BMP_pressure;BME280_temperature;BME280_humidity;BME280_pressure;Samples;Min_cycle;Max_cycle;Signal;HPM_P1;HPM_P2
2023/12/14 00:01:40;;;;;;;33.20;14.60;;;;;;;5.63;78.33;94222.13;5013958;28;20443;-81
2023/12/14 00:04:06;;;;;;;36.42;16.42;;;;;;;5.40;79.12;94231.34;5013951;28;20033;-81
2023/12/14 00:06:31;;;;;;;42.92;14.98;;;;;;;5.43;79.10;94222.13;5013363;28;20038;-81
2023/12/14 00:08:57;;;;;;;29.17;14.30;;;;;;;5.03;79.79;94184.28;5013836;28;20029;-82
2023/12/14 00:11:22;;;;;;;33.58;14.32;;;;;;;5.18;80.31;94222.94;5013536;28;20038;-81
2023/12/14 00:13:48;;;;;;;38.60;15.00;;;;;;;5.43;79.71;94208.97;5069458;28;20020;-81
2023/12/14 00:16:13;;;;;;;28.25;13.88;;;;;;;5.54;79.32;94218.44;5096946;28;20562;-81
2023/12/14 00:18:39;;;;;;;25.08;13.77;;;;;;;5.01;80.06;94191.66;5096328;28;20122;-82
2023/12/14 00:21:05;;;;;;;27.67;13.82;;;;;;;4.77;79.86;94139.88;5096595;28;20127;-81
2023/12/14 00:23:30;;;;;;;28.55;13.52;;;;;;;4.84;79.37;94149.09;5096554;28;20489;-82
2023/12/14 00:25:56;;;;;;;31.83;14.32;;;;;;;5.15;79.74;94204.25;5096590;28;20039;-81
2023/12/14 00:28:22;;;;;;;27.70;13.63;;;;;;;4.91;79.49;94173.25;5114535;28;20043;-81
2023/12/14 00:30:48;;;;;;;29.23;13.77;;;;;;;5.11;79.83;94177.72;5114915;28;20043;-81
2023/12/14 00:33:13;;;;;;;32.50;14.70;;;;;;;5.58;79.58;94235.25;5096447;28;20115;-82
2023/12/14 00:35:39;;;;;;;26.63;14.10;;;;;;;5.59;79.24;94228.16;5096439;28;20092;-82
2023/12/14 00:38:04;;;;;;;26.48;13.60;;;;;;;5.21;78.80;94171.66;5096101;28;20027;-81
2023/12/14 00:40:30;;;;;;;27.55;14.48;;;;;;;5.49;79.14;94241.34;5097194;28;20060;-81
2023/12/14 00:42:55;;;;;;;27.08;12.98;;;;;;;5.49;78.88;94212.41;5075779;28;20490;-81
2023/12/14 00:45:21;;;;;;;29.40;13.95;;;;;;;5.57;78.71;94238.19;5094442;28;20490;-81
2023/12/14 00:47:46;;;;;;;31.42;13.55;;;;;;;5.56;78.35;94212.94;5075555;28;20038;-81
2023/12/14 00:50:12;;;;;;;25.92;13.57;;;;;;;4.84;78.59;94133.31;5075540;28;20124;-81
2023/12/14 00:52:38;;;;;;;32.25;13.55;;;;;;;5.03;78.68;94147.50;5093927;28;20047;-81
2023/12/14 00:55:04;;;;;;;29.27;13.13;;;;;;;5.39;78.38;94219.25;5093819;28;20058;-82
2023/12/14 00:57:29;;;;;;;30.13;14.32;;;;;;;5.43;78.75;94236.06;5075688;28;20478;-81
2023/12/14 00:59:55;;;;;;;31.20;14.18;;;;;;;4.60;79.76;94124.38;5075157;28;20115;-81
2023/12/14 01:02:20;;;;;;;27.33;14.05;;;;;;;4.92;79.66;94180.09;5093392;28;20039;-81
2023/12/14 01:04:46;;;;;;;27.35;13.30;;;;;;;5.39;79.83;94248.19;5075703;28;20119;-81
2023/12/14 01:07:12;;;;;;;25.92;13.88;;;;;;;5.21;79.20;94198.75;5075610;28;20067;-81
2023/12/14 01:09:37;;;;;;;33.60;16.40;;;;;;;5.55;79.48;94256.06;5075609;28;20040;-81
2023/12/14 01:12:03;;;;;;;30.42;12.98;;;;;;;5.30;79.65;94217.41;5075250;28;20035;-81
2023/12/14 01:14:28;;;;;;;26.13;13.88;;;;;;;5.58;79.35;94248.41;5074983;28;20039;-81
2023/12/14 01:16:54;;;;;;;30.85;14.77;;;;;;;4.94;79.66;94172.75;5093203;28;20035;-82
2023/12/14 01:19:20;;;;;;;33.30;13.50;;;;;;;4.85;79.65;94145.41;5093489;28;20130;-81
2023/12/14 01:21:45;;;;;;;25.13;13.52;;;;;;;5.59;79.50;94243.94;5092932;28;20097;-82
2023/12/14 01:24:11;;;;;;;25.33;14.00;;;;;;;5.12;79.53;94221.34;5075176;28;20071;-81
2023/12/14 01:26:36;;;;;;;27.65;13.45;;;;;;;5.37;79.03;94252.09;5074794;28;20028;-81
2023/12/14 01:29:02;;;;;;;29.27;13.57;;;;;;;5.17;79.64;94215.31;5090737;28;20032;-81
2023/12/14 01:31:27;;;;;;;26.50;13.15;;;;;;;4.66;80.09;94142.50;5074426;28;20525;-81
2023/12/14 01:33:53;;;;;;;24.63;13.27;;;;;;;5.25;79.97;94218.22;5074305;28;20028;-81
2023/12/14 01:36:25;;;;;;;31.17;14.68;;;;;;;4.88;80.85;94205.28;5074672;28;20121;-81
2023/12/14 01:38:52;;;;;;;28.92;14.15;;;;;;;5.20;80.80;94225.28;5060292;28;20061;-81
2023/12/14 01:41:18;;;;;;;28.42;13.95;;;;;;;5.17;80.35;94231.88;4992365;28;20037;-81
2023/12/14 01:43:44;;;;;;;30.75;14.90;;;;;;;5.21;80.29;94230.28;5010315;28;20038;-81
2023/12/14 01:46:10;;;;;;;36.45;13.82;;;;;;;4.83;80.34;94165.09;4992658;28;20030;-81
2023/12/14 01:48:36;;;;;;;26.25;13.88;;;;;;;5.07;79.62;94192.44;5010178;28;20112;-81
2023/12/14 01:51:02;;;;;;;34.75;13.77;;;;;;;5.28;79.67;94222.91;4992711;28;20050;-81
2023/12/14 01:53:27;;;;;;;26.70;13.27;;;;;;;5.31;79.95;94224.25;4993005;28;20068;-81
2023/12/14 01:55:53;;;;;;;26.15;13.73;;;;;;;5.19;79.40;94205.34;5010521;28;20030;-81
2023/12/14 01:58:18;;;;;;;28.85;14.02;;;;;;;5.16;79.14;94204.00;4993365;28;20045;-81
2023/12/14 02:00:56;;;;;;;31.50;14.10;;;;;;;5.30;80.09;94223.47;5011525;28;20423;-82
2023/12/14 02:03:21;;;;;;;30.85;14.70;;;;;;;5.23;80.51;94214.25;5014946;28;20038;-81
2023/12/14 02:05:47;;;;;;;31.83;14.55;;;;;;;4.85;80.38;94155.13;5012986;28;20476;-81
2023/12/14 02:08:13;;;;;;;27.55;14.15;;;;;;;5.08;80.07;94238.69;4992706;28;20067;-81
2023/12/14 02:10:38;;;;;;;37.80;16.75;;;;;;;5.05;81.40;94212.94;4992705;28;20047;-82
2023/12/14 02:13:04;;;;;;;32.10;14.88;;;;;;;4.59;80.90;94146.41;4992228;28;20038;-81
2023/12/14 02:15:29;;;;;;;30.38;15.43;;;;;;;4.33;81.29;94118.56;4992417;28;20129;-81
2023/12/14 02:17:55;;;;;;;31.60;14.77;;;;;;;4.62;80.88;94128.31;4992281;28;20049;-81
2023/12/14 02:20:21;;;;;;;29.63;13.95;;;;;;;4.58;81.04;94139.59;5009185;28;20567;-78
2023/12/14 02:22:56;;;;;;;35.50;16.33;;;;;;;5.10;81.86;94220.84;5009174;28;20026;-78
2023/12/14 02:25:23;;;;;;;29.83;15.48;;;;;;;5.23;80.87;94201.13;4991338;28;20102;-79
2023/12/14 02:27:51;;;;;;;28.08;14.60;;;;;;;5.01;80.86;94175.09;5009444;28;20029;-78
2023/12/14 02:30:17;;;;;;;40.22;15.90;;;;;;;5.12;81.11;94208.19;4991297;28;20030;-78
2023/12/14 02:32:44;;;;;;;45.58;16.92;;;;;;;5.11;81.14;94184.84;4991028;28;20428;-78
2023/12/14 02:35:10;;;;;;;36.42;17.25;;;;;;;4.78;81.22;94159.84;5008477;28;20476;-78
2023/12/14 02:37:41;;;;;;;28.77;15.15;;;;;;;4.61;81.87;94110.19;5008513;28;20040;-78
2023/12/14 02:40:08;;;;;;;30.60;14.98;;;;;;;5.06;81.79;94206.63;4991116;28;20439;-78
2023/12/14 02:42:33;;;;;;;34.20;17.15;;;;;;;4.93;82.14;94191.38;4990986;28;20576;-78
2023/12/14 02:45:01;;;;;;;43.47;17.00;;;;;;;5.00;81.78;94213.72;5008692;28;20062;-78
2023/12/14 02:47:27;;;;;;;31.75;16.13;;;;;;;4.89;81.54;94179.81;5008744;28;20087;-78
2023/12/14 02:49:52;;;;;;;35.72;17.58;;;;;;;5.14;82.15;94205.31;4990832;28;20474;-79
2023/12/14 02:52:18;;;;;;;28.08;14.70;;;;;;;4.59;81.58;94155.09;5006475;28;20040;-79
2023/12/14 02:54:43;;;;;;;37.22;17.52;;;;;;;4.71;81.69;94157.50;4990738;28;20121;-78
2023/12/14 02:57:09;;;;;;;32.97;17.60;;;;;;;4.83;82.53;94215.81;5002394;28;20057;-79
2023/12/14 02:59:34;;;;;;;33.17;17.55;;;;;;;4.70;82.91;94190.03;5010391;28;20029;-78
2023/12/14 03:02:00;;;;;;;30.40;16.38;;;;;;;4.89;82.70;94208.72;4995608;28;20136;-78
2023/12/14 03:04:25;;;;;;;34.67;15.85;;;;;;;4.88;83.29;94246.56;4990512;28;20030;-78
2023/12/14 03:06:51;;;;;;;37.10;17.23;;;;;;;4.69;83.27;94195.56;5008053;28;20030;-78
2023/12/14 03:09:18;;;;;;;32.45;17.80;;;;;;;4.79;83.64;94200.84;4991225;28;20423;-78
2023/12/14 03:11:44;;;;;;;42.75;17.40;;;;;;;5.08;83.05;94206.38;4990795;28;20095;-78
2023/12/14 03:14:10;;;;;;;31.95;16.08;;;;;;;5.09;81.97;94190.34;4993543;28;20030;-79
2023/12/14 03:16:35;;;;;;;38.50;16.52;;;;;;;5.24;82.21;94195.59;4993952;28;20049;-78
2023/12/14 03:19:01;;;;;;;34.67;17.23;;;;;;;5.29;81.12;94187.69;4994271;28;20121;-79
2023/12/14 03:21:27;;;;;;;31.85;15.32;;;;;;;4.98;81.20;94151.97;4993952;28;20125;-78
2023/12/14 03:23:52;;;;;;;27.02;14.98;;;;;;;5.31;81.08;94200.59;4993893;28;20029;-78
2023/12/14 03:26:18;;;;;;;40.03;16.95;;;;;;;5.15;81.14;94173.50;4993772;28;20048;-78
2023/12/14 03:28:43;;;;;;;29.70;14.00;;;;;;;5.08;80.73;94148.56;4994672;28;20037;-81
2023/12/14 03:31:13;;;;;;;33.53;15.88;;;;;;;5.17;81.12;94192.44;4994982;28;20038;-81
2023/12/14 03:33:39;;;;;;;31.33;14.00;;;;;;;4.94;81.38;94128.06;5012386;28;20389;-81
2023/12/14 03:36:05;;;;;;;37.28;16.48;;;;;;;4.62;81.13;94106.53;5012434;28;20054;-81
2023/12/14 03:38:32;;;;;;;32.90;15.10;;;;;;;5.23;81.62;94187.97;5012235;28;20041;-81
2023/12/14 03:40:57;;;;;;;39.65;16.35;;;;;;;5.06;81.64;94156.69;5012044;28;20120;-81
2023/12/14 03:43:23;;;;;;;30.38;14.25;;;;;;;5.13;81.71;94151.16;4994259;28;20171;-82
2023/12/14 03:45:48;;;;;;;28.55;14.50;;;;;;;4.96;81.30;94154.06;4994797;28;20034;-81
2023/12/14 03:48:14;;;;;;;29.08;14.00;;;;;;;4.43;80.84;94047.69;4994199;28;20038;-81
2023/12/14 03:50:40;;;;;;;28.00;14.65;;;;;;;5.21;81.68;94161.94;4994578;28;20141;-81
2023/12/14 03:53:06;;;;;;;27.17;13.93;;;;;;;5.19;81.37;94158.03;4994330;28;20033;-81
2023/12/14 03:55:32;;;;;;;31.85;14.50;;;;;;;5.03;80.91;94120.44;5012363;28;20073;-81
2023/12/14 03:57:58;;;;;;;27.75;13.43;;;;;;;4.51;81.26;94068.16;4994306;28;20034;-82
2023/12/14 04:00:23;;;;;;;27.40;12.98;;;;;;;4.66;81.87;94110.19;5011383;28;20111;-81
2023/12/14 04:02:49;;;;;;;25.75;12.50;;;;;;;4.95;81.66;94113.88;5011766;28;20038;-82
2023/12/14 04:05:15;;;;;;;25.27;12.35;;;;;;;4.98;81.47;94130.94;5011772;28;20038;-81
2023/12/14 04:07:40;;;;;;;25.92;12.95;;;;;;;4.70;81.35;94090.25;4994715;28;20034;-81
2023/12/14 04:10:09;;;;;;;22.63;13.40;;;;;;;4.61;81.82;94089.19;4994095;28;20037;-81
2023/12/14 04:12:36;;;;;;;24.10;12.57;;;;;;;5.14;nan;94179.81;4994388;28;20041;-81
2023/12/14 04:15:02;;;;;;;27.00;12.30;;;;;;;5.06;81.70;94182.97;5011670;28;20401;-81
2023/12/14 04:17:28;;;;;;;26.23;11.82;;;;;;;4.90;81.64;94144.59;4994498;28;20041;-81
2023/12/14 04:19:53;;;;;;;23.83;12.52;;;;;;;5.08;81.93;94156.44;4993832;28;20515;-81
2023/12/14 04:22:19;;;;;;;29.25;13.20;;;;;;;4.93;81.79;94158.03;4994279;28;20046;-81
2023/12/14 04:24:44;;;;;;;27.38;13.40;;;;;;;5.04;82.39;94170.09;4993025;28;20034;-81
2023/12/14 04:27:10;;;;;;;29.83;12.20;;;;;;;4.78;82.87;94144.09;4994627;28;20402;-81
2023/12/14 04:29:35;;;;;;;23.73;12.07;;;;;;;4.72;82.75;94145.94;5011870;28;20033;-81
2023/12/14 04:32:01;;;;;;;30.85;14.02;;;;;;;5.06;82.19;94175.09;4994262;28;20160;-81
2023/12/14 04:34:27;;;;;;;31.60;14.43;;;;;;;4.94;82.72;94135.16;4994120;28;20099;-81
2023/12/14 04:36:57;;;;;;;29.05;14.73;;;;;;;5.14;82.54;94155.38;5013209;28;20042;-81
2023/12/14 04:39:23;;;;;;;29.60;15.15;;;;;;;5.00;82.70;94157.75;4995238;28;20102;-80
2023/12/14 04:41:48;;;;;;;30.67;14.85;;;;;;;4.92;82.30;94177.47;4996339;28;20424;-81
2023/12/14 04:44:14;;;;;;;30.67;14.70;;;;;;;4.90;81.92;94160.38;4994053;28;20030;-81
2023/12/14 04:46:39;;;;;;;32.78;15.73;;;;;;;4.98;82.86;94163.28;5011321;28;20041;-81
2023/12/14 04:49:05;;;;;;;42.90;17.20;;;;;;;4.92;83.14;94187.19;5021944;28;20154;-81
2023/12/14 04:51:31;;;;;;;31.95;16.27;;;;;;;4.54;83.69;94113.09;5034048;28;20033;-80
2023/12/14 04:53:57;;;;;;;33.00;15.75;;;;;;;4.60;83.45;94138.28;5010375;28;20187;-80
2023/12/14 04:56:22;;;;;;;33.75;15.65;;;;;;;4.78;82.96;94137.00;5017230;28;20057;-80
2023/12/14 04:58:48;;;;;;;31.20;15.23;;;;;;;4.66;83.14;94147.75;5015155;28;20079;-82
2023/12/14 05:01:14;;;;;;;35.70;15.75;;;;;;;4.52;83.17;94119.63;5026403;28;20132;-80
2023/12/14 05:03:40;;;;;;;35.75;15.85;;;;;;;4.97;83.59;94184.53;5014240;28;20090;-81
2023/12/14 05:06:07;;;;;;;31.30;15.60;;;;;;;4.88;83.39;94186.91;5004138;28;20476;-80
2023/12/14 05:08:32;;;;;;;36.38;16.00;;;;;;;4.45;83.38;94098.88;5009797;28;20045;-80
2023/12/14 05:10:58;;;;;;;26.58;13.70;;;;;;;4.75;83.66;94157.75;4996446;28;20048;-80
2023/12/14 05:13:23;;;;;;;38.50;13.68;;;;;;;4.44;83.47;94078.16;4995395;28;20050;-80
2023/12/14 05:15:49;;;;;;;30.00;14.73;;;;;;;4.98;83.24;94192.16;5008784;28;20067;-80
2023/12/14 05:18:14;;;;;;;28.88;12.43;;;;;;;4.77;83.36;94166.94;4989626;28;20040;-80
2023/12/14 05:20:40;;;;;;;33.83;13.10;;;;;;;4.38;84.66;94106.22;5002050;28;20048;-80
2023/12/14 05:23:05;;;;;;;24.42;12.65;;;;;;;4.54;84.47;94134.09;5001464;28;20101;-81
2023/12/14 05:25:31;;;;;;;21.63;11.82;;;;;;;4.85;83.95;94169.06;5017494;28;20087;-81
2023/12/14 05:27:57;;;;;;;35.90;13.90;;;;;;;4.43;84.00;94110.69;5012320;28;20049;-79
2023/12/14 05:30:22;;;;;;;30.20;13.13;;;;;;;4.47;84.39;94120.44;5015762;28;20061;-81
2023/12/14 05:32:48;;;;;;;23.63;11.95;;;;;;;5.01;83.75;94196.91;5002284;28;20052;-81
2023/12/14 05:35:13;;;;;;;26.17;11.60;;;;;;;4.76;83.71;94139.09;5024132;28;20049;-80
2023/12/14 05:37:39;;;;;;;26.70;13.07;;;;;;;4.94;84.03;94177.19;5057796;23;20145;-80
2023/12/14 05:40:06;;;;;;;24.48;11.80;;;;;;;4.71;84.66;94186.38;5068580;28;20410;-80
2023/12/14 05:42:31;;;;;;;28.80;13.77;;;;;;;4.94;84.37;94201.63;5050908;28;20029;-80
2023/12/14 05:44:58;;;;;;;30.48;15.25;;;;;;;4.91;83.85;94199.53;5083214;22;20095;-85
2023/12/14 05:47:26;;;;;;;27.65;12.75;;;;;;;4.88;84.07;94173.00;5025987;28;20037;-84
2023/12/14 05:49:52;;;;;;;28.63;12.88;;;;;;;4.74;83.98;94174.53;5043894;28;21041;-86
2023/12/14 05:52:17;;;;;;;28.48;12.20;;;;;;;4.69;83.58;94187.69;5026104;28;20069;-85
2023/12/14 05:54:43;;;;;;;31.48;12.73;;;;;;;4.59;84.05;94147.22;5038006;28;20034;-85
2023/12/14 05:57:09;;;;;;;26.80;14.13;;;;;;;4.58;84.13;94161.38;5025132;28;20132;-87
2023/12/14 05:59:34;;;;;;;26.08;13.60;;;;;;;3.24;84.99;93951.75;5015781;28;21847;-85
2023/12/14 06:02:01;;;;;;;30.92;13.20;;;;;;;4.62;85.16;94204.47;5015659;27;20044;-86
2023/12/14 06:04:27;;;;;;;20.13;11.05;;;;;;;3.65;84.78;94039.97;5017664;28;20127;-86
2023/12/14 06:06:53;;;;;;;25.95;11.50;;;;;;;4.89;85.20;94190.31;5014278;28;20033;-85
2023/12/14 06:09:21;;;;;;;25.85;11.77;;;;;;;3.58;84.84;94004.56;5016362;28;20824;-86
2023/12/14 06:11:48;;;;;;;17.42;9.25;;;;;;;3.74;84.29;94003.53;5018595;28;20128;-86
2023/12/14 06:14:13;;;;;;;33.42;12.35;;;;;;;3.99;84.03;94040.31;5013920;28;20041;-86
2023/12/14 06:16:39;;;;;;;26.55;12.20;;;;;;;2.70;83.42;93832.44;5021827;28;20047;-87
2023/12/14 06:19:05;;;;;;;29.02;11.15;;;;;;;5.21;83.27;94211.09;5024915;28;20056;-86
2023/12/14 06:21:30;;;;;;;19.10;9.70;;;;;;;2.70;82.46;93835.06;5010324;28;20067;-86
2023/12/14 06:23:59;;;;;;;19.25;10.35;;;;;;;3.63;82.58;93929.31;5026265;27;20113;-85
2023/12/14 06:26:24;;;;;;;19.45;10.48;;;;;;;2.78;82.18;93848.69;5014618;28;20396;-86
2023/12/14 06:28:50;;;;;;;29.10;11.98;;;;;;;4.38;81.75;94093.13;4993502;28;20037;-85
2023/12/14 06:31:17;;;;;;;20.95;10.48;;;;;;;4.60;81.95;94088.41;5030096;28;20037;-86
2023/12/14 06:33:43;;;;;;;21.70;11.10;;;;;;;4.57;81.81;94064.53;5016951;28;20053;-86
2023/12/14 06:36:09;;;;;;;20.83;10.23;;;;;;;5.61;81.93;94249.75;5019239;28;20587;-86
2023/12/14 06:38:34;;;;;;;25.02;11.10;;;;;;;5.49;82.36;94241.34;5016820;28;20491;-85
2023/12/14 06:41:04;;;;;;;22.40;11.07;;;;;;;5.20;82.44;94163.00;5028505;28;20737;-86
2023/12/14 06:43:29;;;;;;;24.25;11.98;;;;;;;5.34;82.45;94226.38;5018723;28;20082;-85
2023/12/14 06:45:55;;;;;;;32.45;11.52;;;;;;;5.03;81.61;94149.34;5034934;28;20503;-86
2023/12/14 06:48:20;;;;;;;28.20;12.20;;;;;;;5.65;81.95;94235.78;5011165;28;20041;-86
2023/12/14 06:50:46;;;;;;;23.10;12.15;;;;;;;5.51;81.31;94190.03;5018795;28;20036;-85
2023/12/14 06:53:15;;;;;;;22.73;11.00;;;;;;;5.73;81.27;94218.66;5021889;28;20068;-85
2023/12/14 06:55:41;;;;;;;23.02;11.23;;;;;;;5.58;80.23;94195.81;5029801;28;20037;-86
2023/12/14 06:58:11;;;;;;;18.08;10.48;;;;;;;5.41;80.35;94148.78;5042610;23;20075;-84
2023/12/14 07:00:40;;;;;;;27.15;11.80;;;;;;;5.85;80.51;94192.88;5042842;28;20137;-85
2023/12/14 07:03:05;;;;;;;24.63;12.00;;;;;;;5.36;79.85;94150.63;5035760;28;20056;-85
2023/12/14 07:05:32;;;;;;;24.58;11.93;;;;;;;5.16;80.05;94100.72;5035868;28;20053;-84
2023/12/14 07:07:58;;;;;;;26.45;11.27;;;;;;;6.21;80.18;94256.75;5046522;28;20033;-85
2023/12/14 07:10:24;;;;;;;21.38;11.88;;;;;;;4.33;80.18;94000.47;5050551;28;20569;-82
2023/12/14 07:12:50;;;;;;;24.02;12.15;;;;;;;5.29;80.39;94121.19;5022935;28;20055;-87
2023/12/14 07:15:15;;;;;;;27.52;12.73;;;;;;;5.83;80.26;94184.44;4937365;28;20039;-85
2023/12/14 07:17:44;;;;;;;24.10;12.23;;;;;;;5.34;79.41;94150.13;4963614;28;20031;-82
2023/12/14 07:20:11;;;;;;;32.47;12.10;;;;;;;4.49;78.99;94002.81;4947797;28;20030;-84
2023/12/14 07:22:37;;;;;;;22.25;12.05;;;;;;;4.37;78.66;93968.16;4946660;28;20039;-84
2023/12/14 07:25:03;;;;;;;26.83;12.02;;;;;;;4.32;78.17;93962.91;4961117;28;20039;-84
2023/12/14 07:27:29;;;;;;;29.33;11.82;;;;;;;5.76;78.03;94170.78;4962629;28;20067;-83
2023/12/14 07:29:55;;;;;;;20.33;10.77;;;;;;;6.19;78.26;94209.63;4946020;28;20116;-84
2023/12/14 07:32:21;;;;;;;23.48;12.25;;;;;;;6.81;77.98;94289.16;4939693;28;20035;-83
2023/12/14 07:34:47;;;;;;;29.45;12.15;;;;;;;5.81;77.26;94115.50;4948664;28;20257;-86
2023/12/14 07:37:13;;;;;;;27.42;12.05;;;;;;;6.91;76.63;94265.41;4928082;28;20039;-81
2023/12/14 07:39:39;;;;;;;28.77;12.70;;;;;;;6.97;76.42;94275.66;4947190;28;20042;-84
2023/12/14 07:42:05;;;;;;;30.35;12.15;;;;;;;7.02;76.77;94292.50;4943111;28;20142;-85
2023/12/14 07:44:31;;;;;;;25.55;13.00;;;;;;;6.41;76.88;94196.09;4945161;28;20028;-86
2023/12/14 07:46:59;;;;;;;25.55;12.75;;;;;;;6.70;76.74;94227.06;4959090;28;20204;-81
2023/12/14 07:49:25;;;;;;;35.53;14.23;;;;;;;5.76;76.05;94074.25;4946027;28;20132;-86
2023/12/14 07:51:51;;;;;;;30.58;13.27;;;;;;;3.59;75.86;93730.84;4936921;28;20075;-86
2023/12/14 07:54:18;;;;;;;22.05;10.90;;;;;;;3.64;75.13;93736.09;4937467;28;20046;-83
2023/12/14 07:56:44;;;;;;;29.08;11.27;;;;;;;3.29;74.93;93647.81;4950108;28;20119;-85
2023/12/14 07:59:10;;;;;;;31.45;13.23;;;;;;;7.61;75.08;94309.00;4944458;29;20465;-83
2023/12/14 08:01:36;;;;;;;23.73;13.05;;;;;;;6.73;75.29;94169.31;4947907;28;20427;-86
2023/12/14 08:04:03;;;;;;;28.45;11.73;;;;;;;7.68;74.86;94301.56;4954910;28;20035;-85
2023/12/14 08:06:29;;;;;;;34.80;12.63;;;;;;;6.63;74.41;94118.56;4951514;28;20070;-82
2023/12/14 08:08:58;;;;;;;33.72;13.27;;;;;;;6.79;74.09;94155.03;4955626;28;20466;-84
2023/12/14 08:11:24;;;;;;;26.17;10.48;;;;;;;7.33;74.18;94230.56;4962384;28;20115;-85
2023/12/14 08:13:50;;;;;;;27.15;11.20;;;;;;;6.85;74.36;94153.97;4939720;28;20106;-84
2023/12/14 08:16:18;;;;;;;29.10;11.73;;;;;;;7.94;73.87;94296.03;4967883;28;20484;-85
2023/12/14 08:18:48;;;;;;;28.45;13.88;;;;;;;7.93;73.62;94289.22;4959812;28;20035;-85
2023/12/14 08:21:14;;;;;;;31.73;12.70;;;;;;;7.67;73.63;94256.97;4979915;28;20027;-83
2023/12/14 08:23:40;;;;;;;24.85;12.23;;;;;;;7.44;73.04;94208.34;4978097;28;20268;-84
2023/12/14 08:26:08;;;;;;;32.78;12.00;;;;;;;7.81;72.96;94275.56;4975497;28;20034;-84
2023/12/14 08:28:34;;;;;;;24.58;12.07;;;;;;;7.67;72.88;94263.03;4960010;28;20043;-85
2023/12/14 08:31:02;;;;;;;20.10;10.02;;;;;;;7.57;72.86;94255.19;4952685;28;20039;-84
2023/12/14 08:33:28;;;;;;;40.45;12.07;;;;;;;7.51;72.86;94208.00;4956907;28;20035;-85
2023/12/14 08:35:54;;;;;;;32.38;11.20;;;;;;;7.88;73.24;94244.34;4953087;28;20070;-81
2023/12/14 08:38:20;;;;;;;30.55;11.82;;;;;;;6.70;71.83;94042.63;4956276;28;20039;-85
2023/12/14 08:40:45;;;;;;;27.08;11.15;;;;;;;8.18;71.71;94270.47;4952344;28;20112;-84
2023/12/14 08:43:14;;;;;;;39.60;11.85;;;;;;;8.47;71.05;94294.22;4970617;28;20042;-82
2023/12/14 08:45:40;;;;;;;25.65;11.15;;;;;;;8.60;70.64;94300.69;4950890;28;20093;-83
2023/12/14 08:48:06;;;;;;;33.53;10.75;;;;;;;8.75;70.38;94303.16;4954393;28;20100;-83
2023/12/14 08:50:31;;;;;;;24.60;10.65;;;;;;;8.57;70.23;94245.75;4953351;28;20110;-85
2023/12/14 08:53:00;;;;;;;27.08;10.98;;;;;;;9.02;69.73;94321.84;4935569;28;20040;-85
2023/12/14 08:55:26;;;;;;;18.13;9.45;;;;;;;8.90;68.96;94298.47;4965546;28;20035;-85
2023/12/14 08:57:52;;;;;;;20.80;10.07;;;;;;;8.92;69.36;94290.28;4954315;28;20031;-85
2023/12/14 09:00:18;;;;;;;29.33;10.68;;;;;;;8.68;68.95;94252.50;4965392;28;20165;-85
2023/12/14 09:02:54;;;;;;;28.88;10.05;;;;;;;8.93;68.05;94265.38;4948430;28;20046;-85
2023/12/14 09:05:20;;;;;;;21.27;10.00;;;;;;;7.33;68.94;94022.22;4957185;28;20042;-84
2023/12/14 09:07:46;;;;;;;27.88;11.90;;;;;;;6.64;68.75;93888.31;4955093;28;20063;-84
2023/12/14 09:10:12;;;;;;;23.42;12.15;;;;;;;7.84;68.04;94054.09;4974874;28;20094;-86
2023/12/14 09:12:38;;;;;;;35.30;11.68;;;;;;;8.81;68.40;94202.34;4964747;28;20089;-86
2023/12/14 09:15:04;;;;;;;24.02;10.85;;;;;;;9.65;67.46;94305.63;4960193;29;20027;-86
2023/12/14 09:17:34;;;;;;;22.10;10.57;;;;;;;9.72;67.50;94290.16;4957690;28;20039;-85
2023/12/14 09:20:00;;;;;;;17.88;10.10;;;;;;;9.75;67.86;94294.09;4961138;28;20035;-84
2023/12/14 09:22:26;;;;;;;19.65;9.55;;;;;;;9.68;67.21;94291.84;4950860;28;20425;-85
2023/12/14 09:24:52;;;;;;;23.83;11.68;;;;;;;9.23;66.40;94196.16;4956946;28;20387;-86
2023/12/14 09:27:17;;;;;;;27.52;10.30;;;;;;;9.67;66.20;94258.50;4954998;28;20529;-85
2023/12/14 09:29:43;;;;;;;29.92;9.75;;;;;;;9.58;66.21;94239.81;4963854;28;20035;-86
2023/12/14 09:32:09;;;;;;;31.67;10.38;;;;;;;9.87;66.59;94311.09;4956486;28;20047;-86
2023/12/14 09:34:34;;;;;;;22.02;9.77;;;;;;;9.27;65.49;94217.56;4958239;28;20036;-86
2023/12/14 09:37:00;;;;;;;22.60;9.27;;;;;;;9.98;65.48;94317.03;4955940;28;20141;-86
2023/12/14 09:39:27;;;;;;;21.77;9.40;;;;;;;10.02;65.60;94310.84;4957191;28;20039;-86
2023/12/14 09:42:04;;;;;;;24.60;10.07;;;;;;;9.68;64.85;94244.97;4970709;28;20035;-85
2023/12/14 09:44:32;;;;;;;23.52;10.35;;;;;;;10.14;64.47;94304.31;4946006;28;20042;-86
2023/12/14 09:47:02;;;;;;;22.83;10.02;;;;;;;9.76;64.72;94219.69;4956775;29;20043;-86
2023/12/14 09:49:29;;;;;;;31.67;11.07;;;;;;;10.40;64.04;94324.03;4951134;28;20046;-86
2023/12/14 09:51:58;;;;;;;21.40;9.60;;;;;;;10.34;63.56;94325.97;4950131;29;20031;-87
2023/12/14 09:54:26;;;;;;;27.33;9.57;;;;;;;10.47;64.09;94323.63;4957384;28;20050;-87
2023/12/14 09:56:52;;;;;;;23.48;10.40;;;;;;;10.59;63.54;94330.03;4951083;28;20145;-87
2023/12/14 09:59:19;;;;;;;27.00;9.73;;;;;;;9.73;63.97;94219.47;4939621;28;20509;-86
2023/12/14 10:01:45;;;;;;;27.88;8.48;;;;;;;9.99;63.17;94234.63;4931862;28;20031;-87
2023/12/14 10:04:16;;;;;;;22.65;10.27;;;;;;;10.65;63.07;94323.56;4947406;29;20027;-86
2023/12/14 10:06:44;;;;;;;19.48;9.13;;;;;;;10.18;63.00;94273.53;4957702;28;20152;-86
2023/12/14 10:09:13;;;;;;;23.88;9.13;;;;;;;10.52;62.75;94320.91;4967916;28;20039;-85
2023/12/14 10:11:42;;;;;;;18.33;8.30;;;;;;;10.32;62.92;94298.97;4961981;28;20042;-85
2023/12/14 10:14:20;;;;;;;25.10;9.52;;;;;;;10.55;63.07;94309.69;5017372;28;20057;-86
2023/12/14 10:16:45;;;;;;;23.38;8.45;;;;;;;10.11;63.07;94273.09;5031106;28;20037;-85
2023/12/14 10:19:11;;;;;;;20.13;10.65;;;;;;;10.54;62.85;94331.97;5033834;28;20089;-86
2023/12/14 10:21:36;;;;;;;24.13;9.40;;;;;;;9.66;63.12;94198.66;5022045;28;20049;-83
2023/12/14 10:24:02;;;;;;;33.83;10.30;;;;;;;10.05;63.32;94261.81;5028026;28;20076;-82
2023/12/14 10:26:27;;;;;;;28.35;9.80;;;;;;;9.50;62.93;94165.59;5024981;28;20038;-85
2023/12/14 10:28:53;;;;;;;28.13;10.40;;;;;;;10.23;62.72;94260.19;5052129;28;20044;-82
2023/12/14 10:31:21;;;;;;;36.55;10.20;;;;;;;10.30;62.56;94281.78;5032509;28;20040;-84
2023/12/14 10:33:50;;;;;;;20.77;9.80;;;;;;;9.82;62.09;94188.59;5024804;28;20029;-84
2023/12/14 10:36:22;;;;;;;37.88;10.85;;;;;;;10.64;62.31;94345.06;5031117;28;20037;-84
2023/12/14 10:38:52;;;;;;;35.17;10.98;;;;;;;10.54;63.09;94330.13;5033702;28;20726;-83
2023/12/14 10:41:18;;;;;;;28.00;10.70;;;;;;;10.65;63.35;94350.06;5036990;28;20037;-83
2023/12/14 10:43:47;;;;;;;31.48;11.55;;;;;;;10.58;63.09;94367.44;5039544;28;20025;-81
2023/12/14 10:46:14;;;;;;;28.30;11.18;;;;;;;10.58;62.63;94347.03;5034360;28;20040;-85
2023/12/14 10:48:44;;;;;;;22.27;11.48;;;;;;;10.08;62.58;94267.31;5020987;28;20118;-85
2023/12/14 10:51:11;;;;;;;29.05;12.93;;;;;;;9.99;63.17;94261.09;5020739;28;20049;-82
2023/12/14 10:53:37;;;;;;;24.38;12.32;;;;;;;9.58;67.82;94228.44;5034411;28;20038;-84
2023/12/14 10:56:09;;;;;;;27.88;11.55;;;;;;;10.26;70.80;94382.31;5032176;28;20042;-81
2023/12/14 10:58:51;;;;;;;30.95;13.07;;;;;;;9.77;72.77;94337.75;5038517;28;20059;-84
2023/12/14 11:01:20;;;;;;;24.58;12.10;;;;;;;9.61;73.63;94323.94;5032858;28;20029;-83
2023/12/14 11:03:47;;;;;;;23.73;11.98;;;;;;;9.69;74.28;94346.31;5035273;28;20069;-82
2023/12/14 11:06:24;;;;;;;29.40;11.25;;;;;;;9.94;75.65;94390.19;5036709;28;20369;-82
2023/12/14 11:08:55;;;;;;;24.80;8.85;;;;;;;9.58;75.89;94371.41;5031674;28;20039;-80
2023/12/14 11:11:21;;;;;;;17.27;7.90;;;;;;;9.65;76.17;94393.00;5018067;28;20530;-82
2023/12/14 11:13:52;;;;;;;15.88;7.00;;;;;;;9.58;75.67;94397.88;4975761;28;20171;-82
2023/12/14 11:16:23;;;;;;;;;;;;;;;9.57;75.29;94399.72;4949950;28;20485;-85
2023/12/14 11:19:28;;;;;;;14.48;6.30;;;;;;;9.46;75.78;94403.56;4952983;28;20000;-86
2023/12/14 11:21:57;;;;;;;9.77;5.25;;;;;;;9.47;75.31;94396.41;4948678;28;20051;-83
2023/12/14 11:24:23;;;;;;;10.38;4.90;;;;;;;8.11;75.11;94203.97;4961836;28;20059;-86